createdAt,value
2023-05-12T00:00:05.370Z,33.82
2023-05-12T00:01:05.352Z,34.29
2023-05-12T00:02:05.338Z,33.82
2023-05-12T00:03:05.408Z,36.58
2023-05-12T00:04:05.435Z,35.02
2023-05-12T00:05:05.310Z,35.92
2023-05-12T00:06:05.292Z,33.74
2023-05-12T00:07:05.257Z,34.26
2023-05-12T00:08:05.260Z,32.18
2023-05-12T00:09:05.241Z,32.01
2023-05-12T00:10:05.233Z,34.03
2023-05-12T00:11:05.226Z,30.53
2023-05-12T00:12:05.185Z,30.81
2023-05-12T00:13:05.187Z,35.26
2023-05-12T00:14:05.229Z,33.87
2023-05-12T00:15:05.292Z,31.78
2023-05-12T00:16:05.370Z,31.16
2023-05-12T00:17:05.373Z,33.15
2023-05-12T00:18:05.433Z,33.77
2023-05-12T00:19:05.491Z,33.94
2023-05-12T00:20:05.371Z,34.25
2023-05-12T00:21:05.374Z,34.42
2023-05-12T00:22:05.352Z,30.32
2023-05-12T00:23:05.359Z,35.01
2023-05-12T00:24:05.348Z,35.62
2023-05-12T00:25:05.312Z,30.60
2023-05-12T00:26:05.309Z,32.60
2023-05-12T00:27:05.398Z,31.79
2023-05-12T00:28:05.279Z,32.81
2023-05-12T00:29:05.284Z,29.78
2023-05-12T00:30:05.258Z,33.77
2023-05-12T00:31:05.320Z,30.83
2023-05-12T00:32:05.352Z,29.77
2023-05-12T00:33:05.246Z,28.78
2023-05-12T00:34:05.228Z,33.57
2023-05-12T00:35:05.196Z,33.71
2023-05-12T00:36:05.194Z,30.16
2023-05-12T00:37:05.197Z,31.90
2023-05-12T00:38:05.236Z,32.42
2023-05-12T00:39:05.235Z,29.18
2023-05-12T00:40:05.286Z,29.43
2023-05-12T00:41:05.237Z,30.43
2023-05-12T00:42:05.203Z,30.19
2023-05-12T00:43:05.215Z,31.71
2023-05-12T00:44:05.196Z,31.86
2023-05-12T00:45:05.186Z,33.06
2023-05-12T00:46:05.167Z,28.34
2023-05-12T00:47:05.140Z,31.97
2023-05-12T00:48:05.197Z,32.39
2023-05-12T00:49:05.113Z,31.33
2023-05-12T00:50:05.175Z,35.02
2023-05-12T00:51:05.089Z,31.26
2023-05-12T00:52:05.082Z,33.15
2023-05-12T00:53:05.086Z,31.72
2023-05-12T00:54:05.056Z,31.17
2023-05-12T00:55:05.064Z,34.02
2023-05-12T00:56:05.031Z,32.75
2023-05-12T00:57:05.021Z,33.17
2023-05-12T00:58:05.003Z,29.68
2023-05-12T00:59:05.000Z,29.69
2023-05-12T01:00:05.176Z,31.92
2023-05-12T01:01:05.150Z,31.29
2023-05-12T01:02:05.140Z,35.79
2023-05-12T01:04:24.644Z,25.00
2023-05-12T01:05:24.627Z,25.00
2023-05-12T01:06:24.650Z,25.00
2023-05-12T01:07:24.628Z,25.00
2023-05-12T01:08:24.639Z,25.00
2023-05-12T01:09:24.629Z,29.54
2023-05-12T01:10:24.634Z,26.40
2023-05-12T01:11:24.673Z,29.43
2023-05-12T01:12:24.641Z,28.44
2023-05-12T01:13:24.635Z,30.00
2023-05-12T01:14:24.634Z,27.59
2023-05-12T01:15:24.629Z,31.39
2023-05-12T01:16:24.646Z,29.26
2023-05-12T01:17:24.686Z,26.45
2023-05-12T01:18:24.799Z,25.81
2023-05-12T01:19:24.643Z,26.38
2023-05-12T01:20:24.638Z,28.70
2023-05-12T01:21:24.649Z,28.74
2023-05-12T01:22:24.649Z,26.34
2023-05-12T01:23:24.623Z,25.44
2023-05-12T01:24:24.645Z,28.89
2023-05-12T01:25:24.615Z,26.53
2023-05-12T01:26:24.643Z,27.95
2023-05-12T01:27:24.624Z,25.33
2023-05-12T01:28:24.624Z,31.39
2023-05-12T01:29:24.624Z,26.91
2023-05-12T01:30:24.821Z,29.63
2023-05-12T01:31:24.656Z,29.81
2023-05-12T01:32:24.665Z,28.13
2023-05-12T01:33:24.634Z,31.31
2023-05-12T01:34:24.633Z,30.33
2023-05-12T01:35:24.633Z,29.96
2023-05-12T01:36:24.642Z,32.89
2023-05-12T01:37:24.633Z,30.18
2023-05-12T01:38:24.636Z,27.96
2023-05-12T01:39:24.623Z,32.60
2023-05-12T01:40:24.641Z,30.41
2023-05-12T01:41:24.635Z,31.87
2023-05-12T01:42:24.647Z,30.43
2023-05-12T01:43:24.644Z,28.09
2023-05-12T01:44:24.641Z,28.75
2023-05-12T01:45:24.633Z,31.50
2023-05-12T01:46:25.093Z,32.29
2023-05-12T01:47:24.663Z,29.22
2023-05-12T01:48:24.648Z,27.41
2023-05-12T01:49:24.649Z,26.86
2023-05-12T01:50:24.655Z,30.37
2023-05-12T01:51:24.650Z,26.33
2023-05-12T01:52:24.649Z,30.68
2023-05-12T01:53:24.652Z,29.52
2023-05-12T01:54:24.649Z,31.07
2023-05-12T01:55:24.661Z,29.12
2023-05-12T01:56:24.664Z,33.51
2023-05-12T01:57:24.678Z,29.32
2023-05-12T01:58:24.680Z,28.79
2023-05-12T01:59:24.761Z,29.14
2023-05-12T02:00:24.685Z,28.34
2023-05-12T02:01:24.740Z,31.44
2023-05-12T02:02:24.768Z,33.14
2023-05-12T02:03:24.820Z,30.25
2023-05-12T02:04:24.708Z,28.05
2023-05-12T02:05:24.707Z,31.01
2023-05-12T02:06:24.741Z,27.55
2023-05-12T02:07:24.788Z,32.17
2023-05-12T02:08:24.847Z,28.59
2023-05-12T02:09:24.886Z,30.77
2023-05-12T02:10:24.955Z,28.38
2023-05-12T02:11:25.000Z,29.70
2023-05-12T02:12:25.020Z,29.04
2023-05-12T02:13:25.092Z,29.00
2023-05-12T02:14:25.184Z,28.26
2023-05-12T02:15:25.250Z,32.12
2023-05-12T02:16:25.381Z,30.34
2023-05-12T02:17:25.420Z,30.81
2023-05-12T02:18:25.489Z,29.32
2023-05-12T02:19:25.511Z,30.76
2023-05-12T02:20:25.579Z,27.97
2023-05-12T02:21:25.653Z,25.75
2023-05-12T02:22:25.721Z,28.29
2023-05-12T02:23:25.766Z,25.49
2023-05-12T02:24:25.824Z,28.39
2023-05-12T02:25:25.888Z,30.83
2023-05-12T02:26:25.912Z,28.64
2023-05-12T02:27:25.913Z,29.03
2023-05-12T02:28:25.955Z,27.10
2023-05-12T02:29:25.984Z,30.74
2023-05-12T02:30:26.011Z,29.87
2023-05-12T02:31:26.065Z,31.30
2023-05-12T02:32:26.105Z,27.06
2023-05-12T02:33:26.090Z,27.20
2023-05-12T02:34:26.136Z,31.57
2023-05-12T02:35:26.148Z,29.12
2023-05-12T02:36:26.189Z,28.61
2023-05-12T02:37:26.193Z,33.39
2023-05-12T02:38:26.244Z,31.23
2023-05-12T02:39:26.236Z,29.55
2023-05-12T02:40:26.295Z,26.77
2023-05-12T02:41:26.379Z,27.80
2023-05-12T02:42:26.436Z,29.12
2023-05-12T02:43:26.477Z,30.98
2023-05-12T02:44:26.518Z,25.69
2023-05-12T02:45:26.558Z,28.65
2023-05-12T02:46:26.608Z,28.76
2023-05-12T02:47:26.659Z,32.41
2023-05-12T02:48:26.695Z,28.77
2023-05-12T02:49:26.728Z,28.68
2023-05-12T02:50:26.743Z,32.10
2023-05-12T02:51:26.808Z,30.83
2023-05-12T02:52:26.836Z,26.90
2023-05-12T02:53:26.881Z,32.57
2023-05-12T02:54:26.946Z,30.35
2023-05-12T02:55:26.952Z,28.84
2023-05-12T02:56:27.007Z,30.27
2023-05-12T02:57:27.055Z,30.15
2023-05-12T02:58:27.130Z,30.14
2023-05-12T02:59:27.177Z,30.55
2023-05-12T03:00:27.230Z,29.61
2023-05-12T03:01:27.321Z,28.98
2023-05-12T03:02:27.366Z,30.27
2023-05-12T03:03:27.445Z,29.06
2023-05-12T03:04:27.405Z,26.19
2023-05-12T03:05:27.464Z,22.31
2023-05-12T03:06:27.507Z,26.03
2023-05-12T03:07:27.533Z,25.00
2023-05-12T03:08:27.542Z,26.87
2023-05-12T03:09:27.546Z,25.00
2023-05-12T03:10:27.565Z,26.85
2023-05-12T03:11:27.578Z,25.00
2023-05-12T03:12:27.649Z,25.41
2023-05-12T03:13:27.765Z,24.41
2023-05-12T03:14:27.860Z,25.34
2023-05-12T03:15:27.905Z,25.00
2023-05-12T03:16:27.955Z,26.52
2023-05-12T03:17:27.979Z,26.73
2023-05-12T03:18:27.992Z,25.00
2023-05-12T03:19:28.010Z,26.18
2023-05-12T03:20:28.054Z,27.88
2023-05-12T03:21:28.078Z,29.32
2023-05-12T03:22:28.117Z,28.29
2023-05-12T03:23:28.161Z,26.15
2023-05-12T03:24:28.168Z,26.18
2023-05-12T03:25:28.185Z,21.51
2023-05-12T03:26:28.186Z,14.56
2023-05-12T03:27:28.191Z,10.59
2023-05-12T03:28:28.189Z,5.59
2023-05-12T03:29:28.202Z,25.00
2023-05-12T03:30:28.228Z,27.52
2023-05-12T03:31:28.261Z,29.95
2023-05-12T03:32:28.253Z,26.28
2023-05-12T03:33:28.231Z,27.13
2023-05-12T03:34:28.233Z,25.70
2023-05-12T03:35:28.262Z,25.64
2023-05-12T03:36:28.270Z,27.37
2023-05-12T03:37:28.319Z,29.64
2023-05-12T03:38:28.376Z,29.32
2023-05-12T03:39:28.447Z,25.48
2023-05-12T03:40:28.486Z,28.69
2023-05-12T03:41:28.556Z,26.64
2023-05-12T03:42:28.618Z,26.67
2023-05-12T03:43:28.675Z,25.00
2023-05-12T03:44:28.734Z,26.52
2023-05-12T03:45:28.796Z,25.00
2023-05-12T03:46:28.917Z,25.34
2023-05-12T03:47:29.398Z,28.38
2023-05-12T03:48:29.061Z,25.00
2023-05-12T03:49:29.085Z,27.04
2023-05-12T03:50:29.145Z,26.07
2023-05-12T03:51:29.236Z,27.04
2023-05-12T03:52:29.287Z,28.70
2023-05-12T03:53:29.374Z,25.21
2023-05-12T03:54:29.456Z,30.65
2023-05-12T03:55:29.567Z,25.67
2023-05-12T03:56:29.620Z,27.03
2023-05-12T03:57:29.677Z,26.77
2023-05-12T03:58:29.772Z,31.32
2023-05-12T03:59:29.842Z,28.08
2023-05-12T04:00:29.907Z,27.15
2023-05-12T04:01:29.988Z,32.07
2023-05-12T04:02:30.116Z,31.56
2023-05-12T04:03:30.216Z,30.82
2023-05-12T04:04:30.196Z,27.42
2023-05-12T04:05:30.264Z,28.99
2023-05-12T04:06:30.332Z,25.88
2023-05-12T04:07:30.400Z,30.36
2023-05-12T04:08:30.479Z,31.60
2023-05-12T04:09:30.543Z,31.19
2023-05-12T04:10:30.589Z,25.52
2023-05-12T04:11:30.648Z,33.04
2023-05-12T04:12:30.742Z,28.24
2023-05-12T04:13:30.770Z,29.87
2023-05-12T04:14:41.764Z,31.22
2023-05-12T04:15:31.872Z,31.30
2023-05-12T04:16:30.905Z,31.44
2023-05-12T04:17:30.915Z,29.02
2023-05-12T04:18:30.936Z,29.17
2023-05-12T04:19:30.935Z,29.55
2023-05-12T04:20:30.947Z,28.78
2023-05-12T04:21:30.969Z,27.80
2023-05-12T04:22:30.978Z,26.36
2023-05-12T04:23:31.042Z,27.58
2023-05-12T04:24:31.099Z,28.17
2023-05-12T04:25:31.146Z,26.51
2023-05-12T04:26:31.277Z,26.53
2023-05-12T04:27:31.282Z,30.68
2023-05-12T04:28:31.296Z,28.74
2023-05-12T04:29:31.326Z,27.71
2023-05-12T04:30:31.347Z,28.78
2023-05-12T04:31:31.393Z,29.32
2023-05-12T04:32:31.462Z,26.63
2023-05-12T04:33:31.441Z,25.69
2023-05-12T04:34:31.479Z,27.30
2023-05-12T04:35:31.474Z,27.88
2023-05-12T04:36:31.505Z,25.42
2023-05-12T04:37:31.527Z,26.36
2023-05-12T04:38:31.549Z,26.86
2023-05-12T04:39:31.570Z,28.08
2023-05-12T04:40:34.040Z,28.63
2023-05-12T04:41:31.614Z,28.99
2023-05-12T04:42:31.619Z,28.09
2023-05-12T04:44:31.683Z,28.43
2023-05-12T04:45:31.664Z,28.60
2023-05-12T04:46:31.741Z,28.16
2023-05-12T04:47:31.781Z,27.54
2023-05-12T04:48:31.710Z,27.80
2023-05-12T04:49:31.719Z,26.33
2023-05-12T04:50:31.729Z,26.25
2023-05-12T04:51:31.738Z,26.80
2023-05-12T04:52:31.756Z,26.20
2023-05-12T04:53:31.774Z,25.61
2023-05-12T04:54:31.775Z,26.70
2023-05-12T04:55:31.787Z,25.17
2023-05-12T04:56:31.804Z,25.85
2023-05-12T04:57:31.824Z,27.42
2023-05-12T04:58:31.828Z,26.51
2023-05-12T04:59:31.843Z,26.42
2023-05-12T05:00:31.853Z,26.15
2023-05-12T05:01:31.898Z,26.38
2023-05-12T05:02:31.953Z,26.36
2023-05-12T05:03:32.009Z,25.89
2023-05-12T05:04:31.891Z,26.21
2023-05-12T05:05:31.918Z,25.33
2023-05-12T05:06:31.916Z,26.69
2023-05-12T05:07:31.938Z,26.79
2023-05-12T05:08:31.939Z,26.60
2023-05-12T05:09:33.411Z,25.40
2023-05-12T05:10:31.974Z,25.53
2023-05-12T05:11:31.987Z,25.66
2023-05-12T05:12:32.016Z,25.58
2023-05-12T05:13:32.024Z,24.83
2023-05-12T05:14:32.024Z,27.37
2023-05-12T05:15:32.077Z,27.01
2023-05-12T05:16:32.085Z,28.43
2023-05-12T05:17:32.101Z,27.03
2023-05-12T05:18:32.110Z,28.10
2023-05-12T05:20:32.471Z,30.53
2023-05-12T05:21:32.098Z,31.02
2023-05-12T05:22:32.127Z,32.29
2023-05-12T05:23:32.130Z,32.76
2023-05-12T05:24:32.151Z,35.29
2023-05-12T05:25:32.168Z,39.10
2023-05-12T05:26:32.171Z,37.58
2023-05-12T05:27:32.211Z,35.68
2023-05-12T05:28:32.257Z,36.17
2023-05-12T05:29:32.217Z,36.62
2023-05-12T05:30:32.298Z,33.60
2023-05-12T05:31:32.347Z,27.66
2023-05-12T05:32:32.322Z,25.00
2023-05-12T05:33:32.279Z,35.10
2023-05-12T05:34:32.334Z,37.32
2023-05-12T05:35:32.364Z,45.06
2023-05-12T05:36:32.317Z,45.97
2023-05-12T05:37:32.337Z,48.67
2023-05-12T05:38:32.363Z,51.51
2023-05-12T05:39:32.389Z,55.82
2023-05-12T05:40:41.540Z,64.56
2023-05-12T05:41:33.415Z,65.12
2023-05-12T05:42:32.469Z,65.51
2023-05-12T05:43:32.478Z,69.72
2023-05-12T05:44:32.800Z,79.76
2023-05-12T05:45:32.483Z,98.44
2023-05-12T05:46:32.509Z,124.56
2023-05-12T05:47:32.536Z,139.22
2023-05-12T05:48:32.497Z,146.59
2023-05-12T05:49:32.570Z,150.48
2023-05-12T05:50:32.523Z,160.37
2023-05-12T05:51:32.552Z,165.52
2023-05-12T05:52:32.559Z,172.20
2023-05-12T05:53:32.562Z,172.52
2023-05-12T05:54:32.557Z,172.88
2023-05-12T05:55:32.588Z,164.96
2023-05-12T05:56:32.597Z,152.92
2023-05-12T05:57:32.609Z,138.97
2023-05-12T05:58:32.599Z,125.04
2023-05-12T05:59:32.634Z,115.30
2023-05-12T06:00:32.659Z,113.00
2023-05-12T06:01:32.738Z,103.33
2023-05-12T06:02:32.986Z,108.04
2023-05-12T06:03:32.744Z,106.92
2023-05-12T06:04:32.947Z,109.99
2023-05-12T06:05:32.720Z,115.82
2023-05-12T06:06:32.740Z,121.59
2023-05-12T06:07:32.759Z,127.53
2023-05-12T06:08:32.752Z,131.63
2023-05-12T06:09:32.782Z,138.35
2023-05-12T06:10:32.787Z,143.06
2023-05-12T06:11:32.820Z,149.42
2023-05-12T06:12:32.830Z,155.40
2023-05-12T06:13:32.846Z,157.95
2023-05-12T06:14:32.844Z,162.75
2023-05-12T06:15:32.858Z,166.72
2023-05-12T06:16:32.921Z,175.16
2023-05-12T06:17:32.930Z,180.69
2023-05-12T06:18:32.925Z,180.46
2023-05-12T06:19:32.876Z,180.67
2023-05-12T06:20:32.887Z,181.40
2023-05-12T06:21:32.877Z,182.61
2023-05-12T06:22:32.880Z,185.03
2023-05-12T06:23:32.890Z,190.89
2023-05-12T06:24:32.888Z,188.06
2023-05-12T06:25:32.892Z,193.00
2023-05-12T06:26:32.899Z,196.22
2023-05-12T06:27:32.922Z,199.40
2023-05-12T06:28:32.894Z,199.53
2023-05-12T06:29:32.908Z,200.70
2023-05-12T06:30:32.911Z,204.57
2023-05-12T06:31:33.095Z,201.74
2023-05-12T06:32:33.088Z,206.05
2023-05-12T06:33:33.145Z,212.81
2023-05-12T06:34:33.201Z,213.78
2023-05-12T06:35:33.278Z,210.55
2023-05-12T06:36:33.318Z,220.96
2023-05-12T06:37:33.386Z,221.20
2023-05-12T06:38:33.453Z,225.74
2023-05-12T06:39:33.495Z,229.00
2023-05-12T06:40:33.558Z,230.84
2023-05-12T06:41:33.628Z,232.98
2023-05-12T06:42:33.666Z,206.73
2023-05-12T06:43:33.732Z,201.30
2023-05-12T06:44:33.779Z,173.16
2023-05-12T06:45:33.854Z,147.86
2023-05-12T06:46:33.997Z,102.07
2023-05-12T06:47:34.043Z,74.28
2023-05-12T06:48:34.084Z,47.60
2023-05-12T06:49:34.103Z,27.69
2023-05-12T06:50:34.159Z,26.20
2023-05-12T06:51:34.139Z,29.30
2023-05-12T06:52:34.149Z,25.00
2023-05-12T06:53:34.182Z,25.19
2023-05-12T06:54:34.180Z,25.00
2023-05-12T06:55:34.200Z,24.50
2023-05-12T06:56:34.217Z,25.60
2023-05-12T06:57:34.240Z,24.78
2023-05-12T06:58:34.248Z,24.38
2023-05-12T06:59:34.284Z,25.00
2023-05-12T07:00:34.295Z,25.00
2023-05-12T07:01:34.375Z,25.00
2023-05-12T07:02:34.377Z,25.00
2023-05-12T07:03:34.384Z,30.66
2023-05-12T07:04:34.396Z,23.87
2023-05-12T07:05:34.465Z,18.49
2023-05-12T07:06:34.465Z,5.37
2023-05-12T07:07:34.506Z,0.00
2023-05-12T07:08:34.507Z,0.00
2023-05-12T07:09:34.484Z,0.00
2023-05-12T07:10:34.491Z,0.00
2023-05-12T07:11:34.504Z,0.00
2023-05-12T07:12:34.509Z,0.00
2023-05-12T07:13:34.552Z,0.00
2023-05-12T07:14:34.535Z,0.00
2023-05-12T07:15:34.561Z,0.00
2023-05-12T07:16:34.587Z,0.00
2023-05-12T07:17:34.618Z,0.00
2023-05-12T07:18:34.608Z,20.99
2023-05-12T07:19:34.603Z,31.96
2023-05-12T07:20:34.631Z,25.00
2023-05-12T07:21:34.622Z,25.07
2023-05-12T07:22:36.032Z,10.53
2023-05-12T07:23:34.664Z,1.29
2023-05-12T07:24:34.661Z,0.00
2023-05-12T07:25:34.724Z,0.00
2023-05-12T07:26:34.689Z,0.00
2023-05-12T07:27:34.753Z,0.00
2023-05-12T07:28:34.783Z,1.57
2023-05-12T07:29:34.714Z,26.32
2023-05-12T07:30:34.716Z,26.52
2023-05-12T07:31:35.594Z,32.00
2023-05-12T07:32:34.777Z,45.60
2023-05-12T07:33:34.778Z,44.09
2023-05-12T07:34:34.798Z,33.78
2023-05-12T07:35:34.786Z,33.91
2023-05-12T07:36:34.844Z,40.68
2023-05-12T07:37:34.822Z,46.54
2023-05-12T07:38:35.033Z,98.02
2023-05-12T07:39:34.886Z,143.51
2023-05-12T07:40:34.934Z,195.65
2023-05-12T07:41:34.939Z,249.50
2023-05-12T07:42:34.989Z,253.74
2023-05-12T07:43:35.034Z,252.20
2023-05-12T07:44:35.040Z,252.85
2023-05-12T07:45:34.998Z,257.66
2023-05-12T07:46:35.038Z,270.28
2023-05-12T07:47:35.078Z,294.05
2023-05-12T07:48:35.038Z,327.89
2023-05-12T07:49:35.027Z,313.79
2023-05-12T07:50:35.072Z,294.53
2023-05-12T07:51:35.032Z,277.99
2023-05-12T07:52:35.098Z,264.55
2023-05-12T07:53:35.141Z,251.88
2023-05-12T07:54:35.178Z,249.86
2023-05-12T07:55:35.235Z,250.00
2023-05-12T07:56:35.312Z,250.00
2023-05-12T07:57:35.367Z,250.00
2023-05-12T07:58:35.446Z,250.08
2023-05-12T07:59:35.473Z,249.28
2023-05-12T08:00:35.519Z,249.30
2023-05-12T08:01:35.578Z,250.00
2023-05-12T08:02:35.631Z,250.20
2023-05-12T08:03:35.711Z,252.24
2023-05-12T08:04:35.659Z,255.82
2023-05-12T08:05:35.591Z,264.79
2023-05-12T08:06:35.592Z,278.13
2023-05-12T08:07:35.594Z,266.36
2023-05-12T08:08:35.632Z,253.44
2023-05-12T08:09:35.596Z,250.00
2023-05-12T08:10:35.606Z,250.00
2023-05-12T08:11:35.602Z,250.07
2023-05-12T08:12:35.610Z,250.13
2023-05-12T08:13:35.625Z,250.49
2023-05-12T08:14:35.597Z,250.21
2023-05-12T08:15:35.602Z,250.32
2023-05-12T08:16:35.680Z,249.44
2023-05-12T08:17:35.636Z,249.74
2023-05-12T08:18:35.643Z,248.77
2023-05-12T08:19:35.622Z,249.18
2023-05-12T08:20:35.600Z,249.02
2023-05-12T08:21:35.622Z,248.39
2023-05-12T08:22:35.592Z,249.28
2023-05-12T08:23:35.592Z,249.98
2023-05-12T08:24:35.599Z,250.01
2023-05-12T08:25:35.586Z,250.01
2023-05-12T08:26:35.622Z,250.42
2023-05-12T08:27:35.583Z,252.86
2023-05-12T08:28:35.591Z,256.76
2023-05-12T08:29:35.570Z,249.91
2023-05-12T08:30:37.542Z,248.58
2023-05-12T08:31:35.591Z,248.71
2023-05-12T08:32:35.602Z,249.44
2023-05-12T08:33:35.575Z,249.45
2023-05-12T08:34:35.553Z,246.75
2023-05-12T08:35:35.570Z,245.81
2023-05-12T08:36:35.568Z,241.50
2023-05-12T08:37:35.554Z,241.28
2023-05-12T08:38:35.585Z,237.03
2023-05-12T08:39:35.559Z,235.83
2023-05-12T08:40:35.560Z,231.74
2023-05-12T08:41:35.542Z,228.25
2023-05-12T08:42:35.588Z,222.68
2023-05-12T08:43:35.565Z,218.45
2023-05-12T08:44:35.637Z,214.73
2023-05-12T08:45:35.694Z,212.02
2023-05-12T08:46:35.799Z,208.04
2023-05-12T08:47:35.773Z,206.83
2023-05-12T08:48:35.828Z,204.02
2023-05-12T08:49:35.843Z,204.37
2023-05-12T08:50:35.852Z,203.05
2023-05-12T08:51:35.821Z,198.87
2023-05-12T08:52:35.834Z,197.20
2023-05-12T08:53:35.821Z,196.40
2023-05-12T08:54:42.428Z,195.05
2023-05-12T08:55:36.816Z,195.96
2023-05-12T08:57:36.945Z,195.82
2023-05-12T08:58:41.813Z,195.52
2023-05-12T08:59:36.787Z,196.86
2023-05-12T09:00:35.808Z,192.92
2023-05-12T09:01:36.926Z,192.83
2023-05-12T09:02:48.775Z,192.90
2023-05-12T09:03:36.845Z,192.67
2023-05-12T09:04:35.889Z,190.64
2023-05-12T09:05:36.502Z,188.84
2023-05-12T09:06:35.798Z,188.39
2023-05-12T09:07:35.772Z,188.30
2023-05-12T09:08:35.778Z,187.60
2023-05-12T09:09:35.762Z,187.17
2023-05-12T09:10:36.013Z,186.79
2023-05-12T09:11:35.783Z,185.14
2023-05-12T09:12:35.812Z,186.46
2023-05-12T09:13:35.769Z,185.31
2023-05-12T09:14:35.771Z,185.94
2023-05-12T09:15:35.761Z,185.75
2023-05-12T09:16:35.851Z,189.92
2023-05-12T09:17:35.758Z,191.07
2023-05-12T09:18:35.768Z,194.56
2023-05-12T09:19:35.733Z,193.68
2023-05-12T09:20:35.746Z,196.65
2023-05-12T09:21:35.758Z,197.58
2023-05-12T09:22:35.736Z,200.39
2023-05-12T09:23:35.760Z,202.75
2023-05-12T09:24:35.754Z,203.61
2023-05-12T09:25:35.764Z,204.70
2023-05-12T09:26:35.835Z,208.24
2023-05-12T09:27:35.809Z,208.26
2023-05-12T09:28:35.818Z,210.05
2023-05-12T09:29:39.847Z,212.42
2023-05-12T09:30:37.002Z,212.56
2023-05-12T09:31:36.024Z,213.21
2023-05-12T09:32:35.876Z,214.22
2023-05-12T09:33:35.831Z,216.42
2023-05-12T09:34:35.835Z,220.74
2023-05-12T09:35:35.825Z,222.48
2023-05-12T09:36:35.825Z,223.64
2023-05-12T09:37:35.833Z,225.03
2023-05-12T09:38:35.819Z,227.07
2023-05-12T09:39:35.797Z,228.76
2023-05-12T09:40:35.813Z,228.36
2023-05-12T09:41:35.798Z,228.48
2023-05-12T09:42:35.795Z,228.72
2023-05-12T09:43:35.795Z,222.03
2023-05-12T09:44:35.792Z,207.45
2023-05-12T09:45:35.830Z,198.97
2023-05-12T09:46:35.796Z,184.23
2023-05-12T09:47:35.839Z,174.80
2023-05-12T09:48:36.033Z,162.06
2023-05-12T09:49:35.794Z,161.81
2023-05-12T09:50:46.509Z,162.72
2023-05-12T09:51:36.763Z,162.16
2023-05-12T09:52:35.780Z,156.08
2023-05-12T09:53:35.777Z,150.07
2023-05-12T09:54:35.781Z,143.14
2023-05-12T09:55:35.789Z,139.53
2023-05-12T09:56:35.780Z,142.01
2023-05-12T09:57:35.815Z,138.87
2023-05-12T09:58:35.804Z,134.52
2023-05-12T09:59:35.787Z,128.81
2023-05-12T10:00:55.113Z,131.46
2023-05-12T10:01:36.859Z,134.40
2023-05-12T10:02:35.923Z,130.52
2023-05-12T10:03:35.813Z,130.69
2023-05-12T10:04:35.931Z,124.65
2023-05-12T10:05:35.782Z,116.73
2023-05-12T10:06:35.795Z,106.74
2023-05-12T10:07:35.801Z,107.01
2023-05-12T10:08:35.807Z,104.53
2023-05-12T10:09:35.806Z,101.38
2023-05-12T10:10:35.830Z,103.64
2023-05-12T10:11:35.893Z,108.19
2023-05-12T10:12:35.948Z,99.23
2023-05-12T10:13:36.030Z,102.33
2023-05-12T10:14:36.113Z,100.85
2023-05-12T10:15:36.172Z,94.04
2023-05-12T10:16:36.266Z,91.99
2023-05-12T10:17:36.337Z,96.56
2023-05-12T10:18:36.502Z,97.46
2023-05-12T10:19:36.483Z,95.98
2023-05-12T10:20:36.534Z,91.63
2023-05-12T10:21:36.629Z,93.20
2023-05-12T10:22:36.695Z,93.59
2023-05-12T10:23:37.992Z,97.89
2023-05-12T10:24:36.838Z,94.19
2023-05-12T10:25:36.820Z,90.62
2023-05-12T10:26:36.840Z,94.32
2023-05-12T10:27:36.823Z,96.02
2023-05-12T10:28:36.822Z,99.70
2023-05-12T10:29:36.845Z,101.27
2023-05-12T10:30:36.896Z,100.39
2023-05-12T10:31:36.852Z,100.09
2023-05-12T10:32:36.893Z,99.86
2023-05-12T10:33:36.874Z,98.13
2023-05-12T10:34:37.043Z,90.41
2023-05-12T10:35:36.951Z,88.26
2023-05-12T10:36:37.039Z,91.34
2023-05-12T10:37:37.096Z,92.88
2023-05-12T10:38:37.171Z,88.48
2023-05-12T10:39:37.234Z,83.74
2023-05-12T10:40:37.239Z,81.82
2023-05-12T10:41:37.265Z,87.53
2023-05-12T10:42:37.303Z,100.22
2023-05-12T10:43:37.348Z,106.66
2023-05-12T10:44:37.594Z,115.52
2023-05-12T10:45:37.570Z,123.17
2023-05-12T10:46:37.579Z,123.50
2023-05-12T10:47:37.533Z,125.77
2023-05-12T10:48:37.508Z,131.61
2023-05-12T10:49:37.583Z,144.42
2023-05-12T10:50:37.666Z,165.27
2023-05-12T10:51:37.508Z,176.36
2023-05-12T10:52:37.577Z,183.44
2023-05-12T10:53:48.712Z,192.33
2023-05-12T10:54:38.495Z,192.63
2023-05-12T10:55:37.562Z,194.50
2023-05-12T10:56:37.917Z,198.48
2023-05-12T10:57:37.818Z,206.68
2023-05-12T10:58:38.241Z,219.12
2023-05-12T10:59:37.969Z,220.89
2023-05-12T11:00:38.044Z,227.38
2023-05-12T11:01:38.003Z,231.06
2023-05-12T11:02:38.412Z,231.32
2023-05-12T11:03:38.492Z,232.90
2023-05-12T11:04:37.737Z,237.37
2023-05-12T11:05:37.874Z,244.66
2023-05-12T11:06:37.832Z,256.19
2023-05-12T11:07:37.977Z,249.17
2023-05-12T11:08:37.897Z,250.00
2023-05-12T11:09:43.272Z,249.04
2023-05-12T11:10:39.660Z,249.22
2023-05-12T11:11:38.447Z,249.99
2023-05-12T11:12:37.671Z,251.31
2023-05-12T11:13:37.515Z,252.44
2023-05-12T11:14:37.637Z,253.97
2023-05-12T11:15:37.536Z,249.26
2023-05-12T11:16:38.089Z,249.79
2023-05-12T11:17:37.642Z,250.43
2023-05-12T11:18:37.716Z,250.37
2023-05-12T11:19:37.659Z,251.12
2023-05-12T11:20:37.546Z,250.00
2023-05-12T11:21:37.663Z,249.86
2023-05-12T11:22:37.621Z,250.00
2023-05-12T11:23:37.684Z,248.69
2023-05-12T11:24:37.722Z,250.00
2023-05-12T11:25:37.955Z,249.66
2023-05-12T11:26:37.910Z,248.34
2023-05-12T11:27:37.999Z,248.46
2023-05-12T11:28:37.941Z,249.12
2023-05-12T11:29:38.171Z,249.28
2023-05-12T11:30:38.057Z,246.61
2023-05-12T11:31:38.179Z,245.75
2023-05-12T11:32:38.291Z,246.13
2023-05-12T11:33:38.212Z,242.72
2023-05-12T11:34:38.281Z,238.99
2023-05-12T11:35:38.325Z,237.54
2023-05-12T11:36:38.388Z,233.74
2023-05-12T11:37:53.059Z,233.10
2023-05-12T11:38:38.692Z,233.20
2023-05-12T11:39:38.743Z,233.17
2023-05-12T11:40:38.804Z,232.19
2023-05-12T11:41:38.880Z,228.20
2023-05-12T11:42:38.933Z,225.55
2023-05-12T11:43:38.991Z,222.75
2023-05-12T11:44:39.049Z,219.41
2023-05-12T11:45:39.141Z,214.61
2023-05-12T11:46:39.156Z,211.87
2023-05-12T11:47:39.221Z,209.02
2023-05-12T11:48:39.279Z,206.64
2023-05-12T11:49:39.326Z,203.15
2023-05-12T11:50:39.378Z,199.72
2023-05-12T11:51:39.422Z,196.67
2023-05-12T11:52:39.508Z,194.78
2023-05-12T11:53:39.572Z,190.89
2023-05-12T11:54:39.612Z,191.65
2023-05-12T11:55:39.674Z,190.46
2023-05-12T11:56:39.731Z,188.35
2023-05-12T11:57:39.795Z,185.40
2023-05-12T11:58:39.847Z,182.90
2023-05-12T11:59:39.909Z,182.81
2023-05-12T12:00:39.939Z,181.36
2023-05-12T12:01:40.021Z,179.29
2023-05-12T12:02:40.179Z,179.85
2023-05-12T12:03:40.225Z,179.56
2023-05-12T12:04:40.371Z,177.72
2023-05-12T12:05:40.260Z,177.42
2023-05-12T12:06:40.290Z,177.52
2023-05-12T12:07:40.354Z,177.89
2023-05-12T12:08:40.423Z,178.41
2023-05-12T12:09:40.503Z,177.56
2023-05-12T12:10:40.540Z,176.75
2023-05-12T12:11:40.609Z,174.54
2023-05-12T12:12:40.695Z,175.15
2023-05-12T12:13:40.714Z,172.97
2023-05-12T12:14:40.778Z,172.97
2023-05-12T12:15:40.892Z,169.01
2023-05-12T12:16:40.899Z,168.64
2023-05-12T12:17:40.994Z,165.85
2023-05-12T12:18:41.007Z,166.09
2023-05-12T12:19:41.057Z,162.51
2023-05-12T12:20:41.096Z,161.30
2023-05-12T12:21:41.091Z,161.31
2023-05-12T12:22:41.071Z,160.12
2023-05-12T12:23:50.908Z,157.31
2023-05-12T12:24:42.062Z,159.38
2023-05-12T12:25:41.077Z,158.18
2023-05-12T12:26:41.060Z,158.12
2023-05-12T12:27:41.050Z,157.18
2023-05-12T12:28:41.072Z,156.86
2023-05-12T12:29:41.042Z,155.79
2023-05-12T12:30:41.045Z,154.21
2023-05-12T12:31:41.017Z,154.32
2023-05-12T12:32:41.045Z,154.10
2023-05-12T12:33:41.083Z,154.39
2023-05-12T12:34:41.113Z,152.39
2023-05-12T12:35:41.159Z,153.35
2023-05-12T12:36:41.219Z,158.10
2023-05-12T12:37:41.286Z,160.02
2023-05-12T12:38:41.392Z,161.51
2023-05-12T12:39:41.343Z,161.67
2023-05-12T12:40:41.334Z,162.42
2023-05-12T12:41:41.456Z,164.35
2023-05-12T12:42:41.306Z,167.92
2023-05-12T12:43:41.300Z,175.70
2023-05-12T12:44:41.312Z,178.74
2023-05-12T12:45:41.334Z,181.94
2023-05-12T12:46:41.327Z,183.52